Time;durP1;ratioP1;P1;durP2;ratioP2;P2;SDS_P1;SDS_P2;PMS_P1;PMS_P2;Temp;Humidity;BMP_temperature;BMP_pressure;BME280_temperature;BME280_humidity;BME280_pressure;Samples;Min_cycle;Max_cycle;Signal;HPM_P1;HPM_P2
2024/03/17 00:02:27;;;;;;;73.50;18.60;;;;;;;6.63;100.00;100732.73;109390;1254;58979;-54
2024/03/17 00:04:54;;;;;;;72.40;21.20;;;;;;;6.61;100.00;100733.16;109423;1252;74713;-54
2024/03/17 00:07:22;;;;;;;90.10;23.30;;;;;;;6.62;100.00;100731.56;109390;1254;65830;-57
2024/03/17 00:09:50;;;;;;;97.80;23.40;;;;;;;6.62;100.00;100731.04;109371;1254;72712;-54
2024/03/17 00:12:17;;;;;;;89.50;23.70;;;;;;;6.63;100.00;100729.94;109383;1251;59754;-53
2024/03/17 00:14:44;;;;;;;81.70;21.90;;;;;;;6.64;100.00;100729.65;109359;1253;59035;-54
2024/03/17 00:17:12;;;;;;;91.40;22.20;;;;;;;6.65;100.00;100728.06;109403;1253;74749;-53
2024/03/17 00:19:39;;;;;;;77.80;20.00;;;;;;;6.65;100.00;100725.96;109351;1251;65646;-57
2024/03/17 00:22:08;;;;;;;77.50;20.40;;;;;;;6.66;100.00;100725.11;109404;1251;71131;-54
2024/03/17 00:24:36;;;;;;;82.90;22.60;;;;;;;6.66;100.00;100725.84;109367;1254;59494;-54
2024/03/17 00:27:03;;;;;;;66.80;18.10;;;;;;;6.67;100.00;100726.64;109399;1251;59171;-54
2024/03/17 00:29:31;;;;;;;81.70;25.80;;;;;;;6.64;100.00;100725.34;109464;1252;74738;-53
2024/03/17 00:31:59;;;;;;;99.10;26.90;;;;;;;6.62;100.00;100724.83;109374;1251;65858;-54
2024/03/17 00:34:26;;;;;;;86.70;27.60;;;;;;;6.59;100.00;100723.34;109406;1253;72751;-53
2024/03/17 00:36:54;;;;;;;90.00;26.50;;;;;;;6.57;100.00;100723.36;109348;1252;60124;-57
2024/03/17 00:39:22;;;;;;;91.20;27.40;;;;;;;6.56;100.00;100716.88;109407;1254;60260;-54
2024/03/17 00:41:50;;;;;;;78.60;26.40;;;;;;;6.56;100.00;100719.40;109439;1254;74741;-54
2024/03/17 00:44:17;;;;;;;79.70;26.60;;;;;;;6.55;100.00;100716.54;109406;1253;67127;-54
2024/03/17 00:46:45;;;;;;;72.70;27.70;;;;;;;6.54;100.00;100714.22;109428;1253;70698;-53
2024/03/17 00:49:13;;;;;;;66.10;25.70;;;;;;;6.52;100.00;100712.52;109414;1253;59711;-53
2024/03/17 00:51:40;;;;;;;91.20;30.90;;;;;;;6.49;100.00;100711.06;109390;1253;59514;-55
2024/03/17 00:54:08;;;;;;;100.90;33.50;;;;;;;6.46;100.00;100709.98;109358;1254;73896;-54
2024/03/17 00:56:35;;;;;;;124.60;39.10;;;;;;;6.44;100.00;100710.27;109457;1251;65645;-53
2024/03/17 00:59:02;;;;;;;95.60;32.50;;;;;;;6.44;100.00;100709.98;109379;1251;71900;-54
2024/03/17 01:01:30;;;;;;;96.90;30.90;;;;;;;6.44;100.00;100708.93;109381;1251;60087;-54
2024/03/17 01:03:57;;;;;;;80.70;24.40;;;;;;;6.44;100.00;100708.20;109346;1253;59346;-54
2024/03/17 01:06:25;;;;;;;77.00;19.90;;;;;;;6.45;100.00;100708.69;109334;1253;74788;-57
2024/03/17 01:08:52;;;;;;;70.20;19.40;;;;;;;6.44;100.00;100706.13;109353;1253;66925;-54
2024/03/17 01:11:20;;;;;;;72.70;19.00;;;;;;;6.45;100.00;100700.77;109354;1252;71164;-53
2024/03/17 01:13:47;;;;;;;83.60;19.00;;;;;;;6.45;100.00;100703.42;109336;1252;60939;-53
2024/03/17 01:16:15;;;;;;;70.80;18.50;;;;;;;6.47;100.00;100704.81;109435;1253;60099;-54
2024/03/17 01:18:45;;;;;;;94.00;19.90;;;;;;;6.51;100.00;100701.52;109476;1253;74676;-54
2024/03/17 01:21:12;;;;;;;89.10;19.30;;;;;;;6.52;100.00;100700.50;109427;1252;66797;-57
2024/03/17 01:23:40;;;;;;;65.50;18.60;;;;;;;6.52;100.00;100700.19;109419;1253;73143;-56
2024/03/17 01:26:07;;;;;;;85.40;17.30;;;;;;;6.52;100.00;100704.20;109414;1253;60914;-54
2024/03/17 01:28:35;;;;;;;77.90;18.20;;;;;;;6.52;100.00;100704.04;109383;1253;59204;-54
2024/03/17 01:31:06;;;;;;;87.30;19.40;;;;;;;6.52;100.00;100706.27;109458;1253;74672;-54
2024/03/17 01:33:34;;;;;;;78.40;18.00;;;;;;;6.53;100.00;100706.15;109468;1254;65132;-54
2024/03/17 01:36:01;;;;;;;73.90;18.60;;;;;;;6.53;100.00;100707.90;109480;1253;72724;-54
2024/03/17 01:38:29;;;;;;;75.00;18.90;;;;;;;6.51;100.00;100705.96;109355;1253;60460;-56
2024/03/17 01:40:56;;;;;;;74.40;18.90;;;;;;;6.52;100.00;100704.55;109477;1252;59696;-54
2024/03/17 01:43:23;;;;;;;107.30;20.10;;;;;;;6.52;100.00;100703.48;109425;1253;74730;-54
2024/03/17 01:45:51;;;;;;;89.40;19.10;;;;;;;6.52;100.00;100704.55;109445;1253;65227;-54
2024/03/17 01:48:19;;;;;;;102.90;19.80;;;;;;;6.52;100.00;100703.86;109314;1253;73221;-54
2024/03/17 01:50:49;;;;;;;104.10;23.40;;;;;;;6.52;100.00;100703.30;109422;1253;58968;-53
2024/03/17 01:53:16;;;;;;;116.80;23.60;;;;;;;6.53;100.00;100703.72;109309;1252;60122;-57
2024/03/17 01:55:44;;;;;;;94.10;22.60;;;;;;;6.55;100.00;100701.99;109418;1251;74061;-54
2024/03/17 01:58:12;;;;;;;100.50;21.40;;;;;;;6.57;100.00;100704.41;109224;1254;65650;-54
2024/03/17 02:00:39;;;;;;;121.00;23.00;;;;;;;6.57;100.00;100705.03;109380;1253;72727;-54
2024/03/17 02:03:08;;;;;;;112.30;24.10;;;;;;;6.59;100.00;100705.05;109396;1253;61402;-54
2024/03/17 02:05:37;;;;;;;102.10;21.80;;;;;;;6.60;100.00;100705.38;109385;1253;60089;-54
2024/03/17 02:08:07;;;;;;;98.10;25.70;;;;;;;6.58;100.00;100701.30;109398;1252;74682;-57
2024/03/17 02:10:35;;;;;;;90.70;21.80;;;;;;;6.58;100.00;100700.98;109429;1253;65746;-54
2024/03/17 02:13:05;;;;;;;97.60;22.40;;;;;;;6.56;100.00;100702.20;109414;1251;72705;-54
2024/03/17 02:15:33;;;;;;;105.20;20.70;;;;;;;6.52;100.00;100702.27;109327;1251;62873;-53
2024/03/17 02:18:01;;;;;;;101.90;23.30;;;;;;;6.50;100.00;100706.80;109348;1251;60107;-53
2024/03/17 02:23:14;;;;;;;88.70;21.80;;;;;;;6.50;100.00;100707.84;109406;1251;65780;-53
2024/03/17 02:25:43;;;;;;;95.70;22.10;;;;;;;6.50;100.00;100707.15;109315;1251;72802;-53
2024/03/17 02:28:10;;;;;;;92.70;21.10;;;;;;;6.49;100.00;100709.67;109184;1251;227995;-53
2024/03/17 02:30:38;;;;;;;76.80;19.70;;;;;;;6.47;100.00;100709.67;109341;1251;60060;-57
2024/03/17 02:33:06;;;;;;;109.50;25.60;;;;;;;6.47;100.00;100710.58;109291;1251;75159;-57
2024/03/17 02:35:33;;;;;;;119.40;23.80;;;;;;;6.47;100.00;100710.35;109369;1251;65973;-54
2024/03/17 02:38:01;;;;;;;98.10;21.80;;;;;;;6.49;100.00;100710.64;109302;1251;71435;-53
2024/03/17 02:40:28;;;;;;;105.00;22.20;;;;;;;6.51;100.00;100710.16;109328;1251;58966;-54
2024/03/17 02:42:56;;;;;;;105.30;26.40;;;;;;;6.52;100.00;100714.39;109320;1251;60108;-53
2024/03/17 02:45:23;;;;;;;86.50;22.60;;;;;;;6.54;100.00;100712.11;109321;1251;74745;-53
2024/03/17 02:47:51;;;;;;;93.10;23.00;;;;;;;6.56;100.00;100712.66;109323;1251;67533;-57
2024/03/17 02:50:18;;;;;;;102.90;27.40;;;;;;;6.57;100.00;100710.44;109283;1251;72117;-54
2024/03/17 02:52:45;;;;;;;97.00;23.80;;;;;;;6.60;100.00;100710.03;109319;1253;60962;-54
2024/03/17 02:55:13;;;;;;;95.70;25.70;;;;;;;6.61;100.00;100712.84;109310;1251;58997;-54
2024/03/17 02:57:40;;;;;;;106.20;26.50;;;;;;;6.63;100.00;100712.13;109339;1251;74756;-53
2024/03/17 03:00:12;;;;;;;95.10;24.50;;;;;;;6.64;100.00;100713.75;109391;1251;67187;-54
2024/03/17 03:02:40;;;;;;;89.40;26.70;;;;;;;6.63;100.00;100711.09;109289;1253;71480;-53
2024/03/17 03:05:08;;;;;;;82.40;24.50;;;;;;;6.60;100.00;100709.01;109315;1250;60709;-58
2024/03/17 03:07:35;;;;;;;100.50;27.50;;;;;;;6.56;100.00;100710.53;109460;1250;60030;-53
2024/03/17 03:10:03;;;;;;;92.70;25.50;;;;;;;6.55;100.00;100709.09;109525;1250;74737;-53
2024/03/17 03:12:31;;;;;;;103.90;26.40;;;;;;;6.55;100.00;100712.55;109376;1251;67065;-54
2024/03/17 03:14:58;;;;;;;93.60;26.20;;;;;;;6.55;100.00;100715.63;109376;1251;72892;-54
2024/03/17 03:17:26;;;;;;;91.60;27.10;;;;;;;6.56;100.00;100717.55;109416;1253;59627;-54
2024/03/17 03:19:55;;;;;;;99.40;29.60;;;;;;;6.58;100.00;100716.88;109342;1251;58969;-55
2024/03/17 03:22:22;;;;;;;86.80;27.10;;;;;;;6.59;100.00;100717.84;109393;1252;74640;-54
2024/03/17 03:24:52;;;;;;;82.40;27.20;;;;;;;6.59;100.00;100715.94;109391;1253;67551;-54
2024/03/17 03:27:19;;;;;;;104.70;29.80;;;;;;;6.58;100.00;100717.52;109431;1251;72687;-53
2024/03/17 03:29:47;;;;;;;94.80;25.50;;;;;;;6.58;100.00;100718.41;109387;1253;60521;-54
2024/03/17 03:32:14;;;;;;;96.10;28.10;;;;;;;6.60;100.00;100720.34;109378;1253;60119;-54
2024/03/17 03:34:41;;;;;;;96.70;25.70;;;;;;;6.62;100.00;100717.02;109335;1251;73358;-57
2024/03/17 03:37:10;;;;;;;101.00;28.20;;;;;;;6.64;100.00;100717.80;109437;1251;67404;-54
2024/03/17 03:39:38;;;;;;;92.00;27.10;;;;;;;6.64;100.00;100721.07;109385;1251;70813;-54
2024/03/17 03:42:05;;;;;;;126.90;31.70;;;;;;;6.65;100.00;100718.38;109401;1251;59650;-54
2024/03/17 03:44:33;;;;;;;101.70;27.90;;;;;;;6.66;100.00;100720.36;109469;1251;60088;-54
2024/03/17 03:47:00;;;;;;;113.50;29.00;;;;;;;6.66;100.00;100723.23;109443;1252;74712;-54
2024/03/17 03:49:29;;;;;;;106.00;30.00;;;;;;;6.66;100.00;100723.12;109349;1251;66921;-56
2024/03/17 03:51:57;;;;;;;97.90;29.50;;;;;;;6.65;100.00;100722.98;109371;1251;71435;-53
2024/03/17 03:54:24;;;;;;;91.60;26.40;;;;;;;6.66;100.00;100720.52;109366;1251;60171;-54
2024/03/17 03:56:51;;;;;;;101.10;28.60;;;;;;;6.66;100.00;100720.14;109372;1251;60138;-54
2024/03/17 03:59:19;;;;;;;116.00;29.80;;;;;;;6.66;100.00;100724.45;109380;1252;73329;-54
2024/03/17 04:01:47;;;;;;;109.70;27.50;;;;;;;6.67;100.00;100724.70;109401;1252;65657;-53
2024/03/17 04:04:15;;;;;;;106.70;29.10;;;;;;;6.68;100.00;100726.65;109356;1252;71445;-54
2024/03/17 04:06:42;;;;;;;102.80;29.40;;;;;;;6.70;100.00;100727.00;109361;1252;59441;-54
2024/03/17 04:09:10;;;;;;;101.90;30.90;;;;;;;6.71;100.00;100726.75;109368;1252;58931;-54
2024/03/17 04:11:37;;;;;;;98.20;31.60;;;;;;;6.72;100.00;100725.98;109410;1251;74774;-54
2024/03/17 04:14:05;;;;;;;113.20;28.80;;;;;;;6.73;100.00;100724.81;109384;1251;66918;-54
2024/03/17 04:16:32;;;;;;;116.60;29.30;;;;;;;6.74;100.00;100727.17;109365;1252;71459;-54
2024/03/17 04:18:59;;;;;;;124.90;29.10;;;;;;;6.74;100.00;100730.42;109379;1252;59384;-53
2024/03/17 04:21:27;;;;;;;105.40;29.40;;;;;;;6.75;100.00;100730.97;109383;1251;59068;-54
2024/03/17 04:23:54;;;;;;;117.10;30.40;;;;;;;6.77;100.00;100728.41;109358;1251;73689;-54
2024/03/17 04:26:22;;;;;;;133.70;29.60;;;;;;;6.77;100.00;100726.48;109386;1251;65675;-54
2024/03/17 04:28:49;;;;;;;134.50;28.60;;;;;;;6.78;100.00;100728.82;109355;1252;72758;-53
2024/03/17 04:31:17;;;;;;;130.40;29.40;;;;;;;6.80;100.00;100726.22;109343;1251;61811;-54
2024/03/17 04:33:46;;;;;;;147.60;28.60;;;;;;;6.82;100.00;100723.56;109413;1252;59078;-54
2024/03/17 04:36:13;;;;;;;129.20;31.70;;;;;;;6.86;100.00;100722.58;109340;1254;74689;-58
2024/03/17 04:38:41;;;;;;;118.70;28.60;;;;;;;6.90;100.00;100721.26;109389;1252;67290;-53
2024/03/17 04:41:09;;;;;;;103.50;24.90;;;;;;;6.94;100.00;100721.82;109360;1252;71360;-54
2024/03/17 04:43:37;;;;;;;118.10;30.10;;;;;;;6.94;100.00;100722.31;109347;1253;60445;-54
2024/03/17 04:46:05;;;;;;;139.50;30.80;;;;;;;6.93;100.00;100719.27;109334;1253;60084;-54
2024/03/17 04:48:32;;;;;;;128.20;25.60;;;;;;;6.95;100.00;100717.03;109415;1251;74674;-53
2024/03/17 04:51:00;;;;;;;128.60;28.70;;;;;;;6.98;100.00;100716.20;109316;1253;65957;-55
2024/03/17 04:53:29;;;;;;;104.90;26.80;;;;;;;7.01;100.00;100716.70;109345;1253;71349;-53
2024/03/17 04:55:59;;;;;;;97.90;26.00;;;;;;;7.04;100.00;100719.57;109340;1253;60108;-54
2024/03/17 04:58:26;;;;;;;105.10;26.50;;;;;;;7.08;100.00;100720.58;109337;1252;60149;-54
2024/03/17 05:00:54;;;;;;;130.30;27.30;;;;;;;7.14;100.00;100721.77;109395;1253;74726;-53
2024/03/17 05:03:21;;;;;;;102.40;24.50;;;;;;;7.20;100.00;100725.19;109362;1251;66208;-54
2024/03/17 05:06:00;;;;;;;97.20;25.00;;;;;;;7.25;100.00;100728.98;109477;1251;72500;-58
2024/03/17 05:08:28;;;;;;;110.50;24.70;;;;;;;7.30;100.00;100735.55;109328;1254;60156;-54
2024/03/17 05:10:59;;;;;;;84.20;23.40;;;;;;;7.37;100.00;100736.80;109464;1251;59208;-54
2024/03/17 05:13:30;;;;;;;117.60;25.70;;;;;;;7.43;100.00;100740.34;109362;1252;74784;-55
2024/03/17 05:15:58;;;;;;;125.80;23.70;;;;;;;7.47;100.00;100738.05;109385;1253;66922;-53
2024/03/17 05:18:28;;;;;;;93.10;25.60;;;;;;;7.50;100.00;100740.47;109378;1252;72706;-57
2024/03/17 05:21:03;;;;;;;93.00;23.90;;;;;;;7.54;100.00;100747.33;109329;1251;60502;-57
2024/03/17 05:23:31;;;;;;;96.90;23.30;;;;;;;7.60;100.00;100748.70;109456;1251;59045;-54
2024/03/17 05:25:59;;;;;;;87.40;23.50;;;;;;;7.63;100.00;100753.11;109401;1251;73403;-54
2024/03/17 05:28:28;;;;;;;105.20;26.70;;;;;;;7.64;100.00;100755.06;109439;1253;65960;-54
2024/03/17 05:30:56;;;;;;;117.20;25.00;;;;;;;7.66;100.00;100761.09;109357;1253;71361;-53
2024/03/17 05:33:25;;;;;;;116.60;27.40;;;;;;;7.67;100.00;100760.86;109323;1251;61773;-57
2024/03/17 05:35:56;;;;;;;113.20;28.80;;;;;;;7.69;100.00;100758.37;109388;1252;60780;-54
2024/03/17 05:38:26;;;;;;;107.40;28.30;;;;;;;7.71;100.00;100760.63;109425;1253;73435;-54
2024/03/17 05:41:01;;;;;;;83.40;19.20;;;;;;;7.71;100.00;100762.28;109409;1253;66976;-54
2024/03/17 05:43:29;;;;;;;91.30;22.70;;;;;;;7.71;100.00;100764.88;109381;1253;74235;-54
2024/03/17 05:45:57;;;;;;;107.30;25.00;;;;;;;7.70;100.00;100761.86;109400;1251;61798;-54
2024/03/17 05:48:25;;;;;;;91.40;23.80;;;;;;;7.72;100.00;100766.89;109338;1251;59757;-57
2024/03/17 05:50:52;;;;;;;96.00;24.20;;;;;;;7.74;100.00;100766.52;109378;1251;74589;-54
2024/03/17 05:53:20;;;;;;;91.60;24.10;;;;;;;7.75;100.00;100766.91;109422;1253;65962;-53
2024/03/17 05:55:47;;;;;;;98.00;25.70;;;;;;;7.77;100.00;100765.01;109438;1252;72756;-54
2024/03/17 05:58:15;;;;;;;77.20;21.20;;;;;;;7.79;100.00;100767.55;109382;1253;59014;-54
2024/03/17 06:00:43;;;;;;;106.00;25.20;;;;;;;7.83;100.00;100768.91;109408;1252;60295;-54
2024/03/17 06:03:11;;;;;;;99.80;24.40;;;;;;;7.87;100.00;100767.94;109366;1251;73837;-55
2024/03/17 06:05:40;;;;;;;100.90;21.50;;;;;;;7.93;100.00;100769.46;109397;1251;66118;-54
2024/03/17 06:08:08;;;;;;;76.00;21.00;;;;;;;8.00;100.00;100768.77;109386;1252;72784;-54
2024/03/17 06:10:36;;;;;;;70.70;20.80;;;;;;;8.05;100.00;100768.73;109365;1251;59394;-54
2024/03/17 06:13:04;;;;;;;65.10;18.40;;;;;;;8.11;100.00;100768.84;109444;1253;60271;-55
2024/03/17 06:15:31;;;;;;;65.60;18.20;;;;;;;8.15;100.00;100768.84;109407;1250;73416;-55
2024/03/17 06:18:01;;;;;;;85.40;21.90;;;;;;;8.17;100.00;100772.94;109454;1250;67428;-54
2024/03/17 06:20:29;;;;;;;74.70;20.40;;;;;;;8.20;100.00;100772.23;109369;1253;75676;-55
2024/03/17 06:22:57;;;;;;;73.40;19.80;;;;;;;8.23;100.00;100772.46;109383;1250;63667;-54
2024/03/17 06:25:24;;;;;;;67.20;17.70;;;;;;;8.25;100.00;100772.48;109407;1251;58891;-55
2024/03/17 06:27:51;;;;;;;69.30;20.60;;;;;;;8.27;100.00;100771.79;109411;1250;73545;-55
2024/03/17 06:30:19;;;;;;;51.50;18.10;;;;;;;8.30;100.00;100770.21;109411;1250;67034;-54
2024/03/17 06:32:46;;;;;;;58.30;18.40;;;;;;;8.35;100.00;100769.59;109384;1251;72722;-54
2024/03/17 06:35:25;;;;;;;61.10;18.50;;;;;;;8.39;100.00;100771.20;109358;1251;61769;-54
2024/03/17 06:37:52;;;;;;;56.80;18.60;;;;;;;8.47;100.00;100766.59;109459;1252;59349;-55
2024/03/17 06:40:20;;;;;;;48.70;16.90;;;;;;;8.57;100.00;100765.84;109353;1251;74770;-55
2024/03/17 06:42:47;;;;;;;45.70;18.90;;;;;;;8.67;100.00;100764.89;109417;1251;67089;-54
2024/03/17 06:45:17;;;;;;;47.10;17.10;;;;;;;8.79;100.00;100769.80;109436;1250;71462;-54
2024/03/17 06:47:44;;;;;;;45.70;15.70;;;;;;;8.89;100.00;100770.58;109375;1251;61710;-54
2024/03/17 06:50:12;;;;;;;54.20;18.40;;;;;;;9.00;100.00;100765.82;109377;1251;59995;-54
2024/03/17 06:52:39;;;;;;;47.90;16.40;;;;;;;9.11;100.00;100760.89;109389;1251;74766;-58
2024/03/17 06:55:07;;;;;;;48.90;16.50;;;;;;;9.23;100.00;100752.67;109443;1250;66884;-55
2024/03/17 06:57:35;;;;;;;61.30;18.70;;;;;;;9.37;100.00;100750.27;109434;1250;72881;-55
2024/03/17 07:00:06;;;;;;;44.60;16.20;;;;;;;9.51;100.00;100747.77;109403;1250;59001;-54
2024/03/17 07:02:33;;;;;;;45.60;15.70;;;;;;;9.62;100.00;100739.29;109372;1251;58912;-55
2024/03/17 07:05:02;;;;;;;46.10;16.30;;;;;;;9.70;100.00;100732.51;109421;1251;73273;-54
2024/03/17 07:07:29;;;;;;;52.70;17.60;;;;;;;9.79;100.00;100734.23;109396;1250;65690;-55
2024/03/17 07:09:57;;;;;;;45.20;15.50;;;;;;;9.85;100.00;100731.24;109364;1251;72103;-54
2024/03/17 07:12:25;;;;;;;49.00;17.00;;;;;;;9.91;100.00;100726.60;109336;1255;60154;-54
2024/03/17 07:14:52;;;;;;;44.10;14.80;;;;;;;9.96;100.00;100725.00;109376;1251;60180;-55
2024/03/17 07:17:19;;;;;;;44.40;15.50;;;;;;;10.02;100.00;100722.55;109375;1251;74697;-54
2024/03/17 07:19:47;;;;;;;55.10;16.90;;;;;;;10.09;100.00;100721.15;109386;1251;65505;-54
2024/03/17 07:22:14;;;;;;;35.70;14.40;;;;;;;10.16;100.00;100718.52;109423;1251;72780;-54
2024/03/17 07:24:44;;;;;;;42.30;15.50;;;;;;;10.18;100.00;100716.88;109322;1251;61059;-55
2024/03/17 07:27:14;;;;;;;44.20;16.60;;;;;;;10.17;100.00;100712.37;109392;1251;59230;-55
2024/03/17 07:29:41;;;;;;;50.10;15.50;;;;;;;10.15;100.00;100711.27;109385;1251;72889;-54
2024/03/17 07:32:09;;;;;;;34.50;13.90;;;;;;;10.20;100.00;100707.98;109410;1251;65646;-54
2024/03/17 07:34:36;;;;;;;37.00;15.40;;;;;;;10.25;100.00;100704.36;109330;1253;72693;-54
2024/03/17 07:37:04;;;;;;;36.20;13.80;;;;;;;10.27;100.00;100702.92;109368;1251;60489;-58
2024/03/17 07:39:34;;;;;;;40.10;15.40;;;;;;;10.27;100.00;100700.02;109392;1251;59229;-54
2024/03/17 07:42:02;;;;;;;38.60;15.60;;;;;;;10.25;100.00;100696.04;109403;1251;74644;-55
2024/03/17 07:44:33;;;;;;;47.90;18.60;;;;;;;10.24;100.00;100696.41;109425;1251;66861;-54
2024/03/17 07:47:01;;;;;;;;;;;;;;;10.24;100.00;100695.24;109406;1251;72703;-55
2024/03/17 07:49:28;;;;;;;42.70;17.30;;;;;;;10.22;100.00;100695.40;109395;1251;58959;-54
2024/03/17 07:51:57;;;;;;;45.00;19.20;;;;;;;10.23;100.00;100692.86;109440;1251;59034;-56
2024/03/17 07:54:26;;;;;;;43.40;16.50;;;;;;;10.25;100.00;100687.85;109432;1251;74767;-54
2024/03/17 07:56:53;;;;;;;39.60;16.80;;;;;;;10.30;100.00;100685.23;109407;1251;67411;-54
2024/03/17 07:59:21;;;;;;;40.00;17.00;;;;;;;10.36;100.00;100684.59;109441;1251;70925;-54
2024/03/17 08:01:48;;;;;;;36.40;14.70;;;;;;;10.40;100.00;100685.97;109391;1251;59006;-55
2024/03/17 08:04:16;;;;;;;36.10;14.90;;;;;;;10.50;100.00;100684.23;109405;1251;60180;-55
2024/03/17 08:06:44;;;;;;;27.00;14.70;;;;;;;10.63;100.00;100682.05;109321;1250;72983;-58
2024/03/17 08:09:12;;;;;;;34.50;15.60;;;;;;;10.79;100.00;100682.18;109394;1250;67026;-55
2024/03/17 08:11:46;;;;;;;25.80;13.80;;;;;;;10.97;100.00;100684.14;109424;1250;72712;-55
2024/03/17 08:14:16;;;;;;;29.40;14.60;;;;;;;11.14;100.00;100683.39;109474;1250;61785;-55
2024/03/17 08:16:43;;;;;;;32.80;14.10;;;;;;;11.25;100.00;100677.96;109500;1256;59336;-55
2024/03/17 08:19:11;;;;;;;32.00;13.40;;;;;;;11.35;100.00;100676.95;109479;1250;74623;-56
2024/03/17 08:21:39;;;;;;;37.30;13.80;;;;;;;11.41;100.00;100673.20;109472;1252;65872;-56
2024/03/17 08:24:06;;;;;;;24.30;14.40;;;;;;;11.51;100.00;100670.94;109486;1250;72742;-55
2024/03/17 08:26:34;;;;;;;28.80;13.70;;;;;;;11.55;100.00;100663.77;109470;1256;60089;-56
2024/03/17 08:29:01;;;;;;;26.70;12.70;;;;;;;11.55;100.00;100662.92;109521;1250;60192;-55
2024/03/17 08:31:29;;;;;;;22.50;11.20;;;;;;;11.59;100.00;100659.08;109485;1250;74718;-55
2024/03/17 08:33:56;;;;;;;17.90;10.90;;;;;;;11.62;100.00;100650.84;109536;1250;68928;-55
2024/03/17 08:36:24;;;;;;;19.30;11.50;;;;;;;11.61;100.00;100646.58;109447;1253;71857;-58
2024/03/17 08:38:53;;;;;;;19.00;11.00;;;;;;;11.57;100.00;100644.41;109481;1256;58950;-55
2024/03/17 08:41:20;;;;;;;23.90;12.00;;;;;;;11.53;100.00;100641.96;109458;1250;59995;-55
2024/03/17 08:43:48;;;;;;;17.40;11.70;;;;;;;11.47;100.00;100639.88;109434;1250;74791;-56
2024/03/17 08:46:15;;;;;;;21.00;11.40;;;;;;;11.39;100.00;100638.68;109492;1250;66070;-55
2024/03/17 08:48:42;;;;;;;23.60;11.10;;;;;;;11.28;100.00;100633.51;109434;1250;71452;-55
2024/03/17 08:51:10;;;;;;;18.10;10.40;;;;;;;11.20;100.00;100636.52;109439;1250;63722;-58
2024/03/17 08:53:39;;;;;;;19.80;11.60;;;;;;;11.20;100.00;100633.14;109437;1250;59356;-55
2024/03/17 08:56:06;;;;;;;23.50;11.80;;;;;;;11.22;100.00;100630.92;109465;1250;77458;-55
2024/03/17 08:58:34;;;;;;;19.50;11.70;;;;;;;11.30;100.00;100628.98;109501;1250;69821;-55
2024/03/17 09:01:06;;;;;;;17.10;11.00;;;;;;;11.42;100.00;100628.73;109431;1251;74158;-55
2024/03/17 09:03:35;;;;;;;19.60;11.70;;;;;;;11.54;100.00;100626.81;109469;1250;61043;-55
2024/03/17 09:06:03;;;;;;;20.40;12.10;;;;;;;11.64;100.00;100628.14;109189;1250;61379;-59
2024/03/17 09:08:33;;;;;;;19.40;12.50;;;;;;;11.78;100.00;100622.66;109455;1250;75722;-56
2024/03/17 09:11:01;;;;;;;18.40;11.50;;;;;;;11.93;100.00;100620.06;109437;1250;69480;-54
2024/03/17 09:13:28;;;;;;;20.10;12.20;;;;;;;12.04;100.00;100615.89;109418;1250;72717;-55
2024/03/17 09:15:59;;;;;;;18.40;9.60;;;;;;;12.13;100.00;100611.52;109448;1250;60160;-56
2024/03/17 09:18:32;;;;;;;15.40;10.00;;;;;;;12.20;100.00;100608.75;109442;1250;58946;-58
2024/03/17 09:21:03;;;;;;;20.00;12.10;;;;;;;12.27;100.00;100607.24;109467;1253;76439;-55
2024/03/17 09:23:31;;;;;;;19.50;11.80;;;;;;;12.33;100.00;100602.33;109442;1250;68670;-55
2024/03/17 09:26:00;;;;;;;18.10;12.00;;;;;;;12.36;100.00;100598.98;109451;1250;74464;-55
2024/03/17 09:28:29;;;;;;;18.70;11.00;;;;;;;12.37;100.00;100600.72;109429;1250;62201;-55
2024/03/17 09:30:57;;;;;;;16.70;10.70;;;;;;;12.41;100.00;100594.89;109394;1250;61100;-58
2024/03/17 09:33:25;;;;;;;16.40;9.80;;;;;;;12.48;100.00;100594.46;109394;1250;75651;-55
2024/03/17 09:36:00;;;;;;;17.00;9.90;;;;;;;12.55;100.00;100591.47;109449;1250;67475;-55
2024/03/17 09:38:28;;;;;;;16.50;10.30;;;;;;;12.60;100.00;100588.59;109479;1250;72461;-55
2024/03/17 09:41:00;;;;;;;16.30;10.50;;;;;;;12.64;100.00;100584.71;109453;1250;62919;-55
2024/03/17 09:43:29;;;;;;;21.00;10.90;;;;;;;12.67;100.00;100586.52;109464;1250;62080;-55
2024/03/17 09:45:59;;;;;;;17.10;10.70;;;;;;;12.65;100.00;100586.34;109458;1250;77141;-55
2024/03/17 09:48:28;;;;;;;18.30;11.40;;;;;;;12.62;100.00;100579.59;109476;1250;69356;-55
2024/03/17 09:50:57;;;;;;;20.10;12.00;;;;;;;12.58;100.00;100579.39;109322;1250;74851;-55
2024/03/17 09:53:29;;;;;;;21.90;11.60;;;;;;;12.52;100.00;100581.84;109477;1250;62126;-55
2024/03/17 09:56:01;;;;;;;18.40;10.80;;;;;;;12.46;100.00;100581.02;109387;1250;62348;-55
2024/03/17 09:58:29;;;;;;;22.90;12.90;;;;;;;12.40;100.00;100581.73;109450;1250;75664;-58
2024/03/17 10:00:56;;;;;;;21.10;11.40;;;;;;;12.35;100.00;100579.95;109529;1250;69397;-55
2024/03/17 10:03:55;;;;;;;22.50;10.70;;;;;;;12.30;100.00;100579.49;109483;1250;74315;-54
2024/03/17 10:06:23;;;;;;;23.10;11.40;;;;;;;12.22;100.00;100579.61;109426;1250;61296;-59
2024/03/17 10:08:56;;;;;;;19.60;11.20;;;;;;;12.15;100.00;100581.27;109442;1250;62531;-55
2024/03/17 10:11:25;;;;;;;19.60;12.00;;;;;;;12.09;100.00;100578.55;109507;1250;76687;-56
2024/03/17 10:14:08;;;;;;;21.80;12.40;;;;;;;12.02;100.00;100578.23;109489;1250;68209;-55
2024/03/17 10:16:37;;;;;;;21.50;13.30;;;;;;;11.90;100.00;100578.59;109425;1253;75105;-55
2024/03/17 10:19:27;;;;;;;22.90;13.10;;;;;;;11.79;100.00;100577.10;109474;1253;63048;-54
2024/03/17 10:22:00;;;;;;;26.50;15.30;;;;;;;11.63;100.00;100578.95;109467;1250;60958;-54
2024/03/17 10:24:28;;;;;;;24.70;14.30;;;;;;;11.52;100.00;100580.46;109470;1250;75764;-55
2024/03/17 10:26:57;;;;;;;26.30;14.20;;;;;;;11.40;100.00;100582.39;109447;1250;68883;-58
2024/03/17 10:29:25;;;;;;;25.00;14.10;;;;;;;11.31;100.00;100575.29;109402;1250;74275;-55
2024/03/17 10:31:57;;;;;;;29.00;14.80;;;;;;;11.28;100.00;100578.45;109435;1250;62911;-55
2024/03/17 10:34:26;;;;;;;25.80;14.20;;;;;;;11.21;100.00;100578.52;109487;1250;61302;-55
2024/03/17 10:37:13;;;;;;;30.20;16.00;;;;;;;11.17;100.00;100576.91;109495;1250;77224;-55
2024/03/17 10:39:42;;;;;;;31.40;15.60;;;;;;;11.17;100.00;100576.14;109393;1250;69099;-54
2024/03/17 10:42:10;;;;;;;27.70;16.70;;;;;;;11.22;100.00;100576.88;109430;1250;76009;-55
2024/03/17 10:44:38;;;;;;;29.30;17.10;;;;;;;11.32;100.00;100573.73;109466;1250;61264;-55
2024/03/17 10:47:09;;;;;;;28.20;16.50;;;;;;;11.46;100.00;100572.24;109515;1250;60881;-54
2024/03/17 10:49:38;;;;;;;35.80;16.50;;;;;;;11.56;100.00;100568.67;109441;1250;76798;-58
2024/03/17 10:52:15;;;;;;;32.40;16.20;;;;;;;11.61;100.00;100567.16;109493;1250;68809;-55
2024/03/17 10:54:50;;;;;;;27.20;15.90;;;;;;;11.66;100.00;100557.34;109351;1257;74642;-55
2024/03/17 10:57:36;;;;;;;30.50;16.10;;;;;;;11.78;100.00;100560.86;109464;1253;61162;-54
2024/03/17 11:00:05;;;;;;;26.60;15.00;;;;;;;11.93;100.00;100555.52;109493;1250;60580;-55
2024/03/17 11:02:33;;;;;;;25.10;13.70;;;;;;;12.07;100.00;100551.51;109477;1250;75401;-55
2024/03/17 11:05:19;;;;;;;26.90;14.40;;;;;;;12.20;100.00;100552.80;109231;1250;69210;-54
2024/03/17 11:07:48;;;;;;;23.60;12.80;;;;;;;12.32;100.00;100551.92;109457;1250;74823;-55